Ashland, ME (04737)

5:29 AM EDT on August 26, 2016 (GMT -0400)
Northern Maine Regional At Presque Isle | | Change Station

Elev 479 ft 46.69 °N, 68.04 °W | Updated 33 minutes ago

Partly Cloudy
Partly Cloudy
67 °F
Feels Like 67 °F
N
5
Wind Variable Wind from SSW

Today
High -- | Low -- °F
--% Chance of Precip.
Yesterday
High -- | Low -- °F
Precip. -- in
Pressure 29.96 in
Visibility 10.0 miles
Clouds Few 8500 ft
Dew Point 66 °F
Humidity 97%
Rainfall 0.00 in
Snow Depth Not available.
5:50 AM 7:27 PM
Last Quarter, 36% visible
METAR KPQI 260856Z AUTO 21004KT 10SM FEW085 19/19 A2986 RMK AO2 SLP144 T01940189 50000
Pressure 29.96 in
Visibility 10.0 miles
Clouds Few 8500 ft
Dew Point 66 °F
Humidity 97%
Rainfall 0.00 in
Snow Depth Not available.
5:50 AM 7:27 PM
Last Quarter, 36% visible
METAR KPQI 260856Z AUTO 21004KT 10SM FEW085 19/19 A2986 RMK AO2 SLP144 T01940189 50000

10-Day Weather Forecast

Almanac

Astronomy

Aug. 26, 2016 Rise Set
Actual Time
Civil Twilight
Nautical Twilight
Astronomical Twilight
Moon
Length of Visible Light
Length of Day
Tomorrow will be .
, % of the Moon is Illuminated

Today's Extremes

State Highs State Lows

Community

WunderPhotos

Upload Photos

1,935,069 photos uploaded!

WunderBlog® & News

Nearby

Air Quality

  Air Quality AQ Index Pollutant
Not available.

Snow Depth

Station Depth Elevation

Earthquake Activity

City Distance Mag. Time & Date
Minimum magnitude displayed is 2.5.

Coastal Water Temperatures

Place Temperature

Stations

Nearby Weather Stations

Station Location Temp. Windchill Dew Point Humidity Wind Precip. Elev Updated Type
                   

Watches & Warnings

There are currently no watches in effect.